Latest Weather Observations for Davis*

IDT60801

Issued at 9:31 am EDT Tuesday 27 January 2015 (issued every 30 minutes, with the page automatically refreshed every 10 minutes)

About weather observations | Map of weather stations | Latest weather observations for ANT | Other Formats
Station Details ID: 300000 Name: DAVIS Lat: -68.57 Lon: 77.97 Height: 18.0 m
Data from the previous 72 hours. | See also: Recent months at Davis*
Date/Time
EDT
Temp
°C
App
Temp
°C
Dew
Point
Rel
Hum
%
Delta-T
°C
Wind Press
QNH
hPa
Press
MSL
hPa
Rain
since 9 am
mm
Dir
 
Spd
km/h
Gust
km/h
Spd
kts
Gust
kts
27/09:30am 2.6 -7.5 -6.2 52 - ENE 39 50 21 27 981.6 - -
27/09:00am 2.9 -7.6 -6.2 51 - ENE 41 59 22 32 981.1 - -
27/08:30am 3.0 -7.9 -5.9 52 - ENE 43 65 23 35 980.9 - -
27/08:09am 3.1 -5.9 -6.0 51 - ENE 33 52 18 28 980.9 - -
27/08:00am 3.1 -7.0 -5.8 52 - ENE 39 56 21 30 980.7 980.8 -
27/07:30am 2.9 -5.9 -5.7 53 - ENE 32 52 17 28 980.7 - -
27/07:27am 2.9 -5.5 -5.7 53 - ENE 30 48 16 26 980.8 - -
27/07:00am 2.8 -5.9 -5.6 54 - ENE 32 44 17 24 980.7 - -
27/06:50am 2.8 -5.2 -5.3 55 - ENE 28 46 15 25 980.8 - -
27/06:30am 2.7 -5.2 -5.2 56 - ENE 28 41 15 22 980.6 - -
27/06:13am 2.7 -6.0 -5.2 56 - ENE 32 50 17 27 980.6 - -
27/06:00am 2.8 -6.5 -5.3 55 - ENE 35 48 19 26 980.5 - -
27/05:30am 2.9 -7.2 -5.5 54 - ENE 39 57 21 31 980.3 - -
27/05:29am 2.9 -7.2 -5.5 54 - ENE 39 57 21 31 980.3 - -
27/05:00am 2.8 -7.2 -5.1 56 - ENE 39 56 21 30 980.2 980.3 -
27/04:55am 2.8 -6.8 -4.9 57 - ENE 37 56 20 30 980.4 - -
27/04:30am 2.7 -7.3 -4.7 58 - ENE 39 56 21 30 980.3 - -
27/04:05am 2.8 -7.6 -4.6 58 - ENE 41 59 22 32 980.0 - -
27/04:00am 2.9 -7.9 -4.8 57 - ENE 43 59 23 32 979.9 - -
27/03:32am 3.0 -7.0 -5.1 55 - ENE 39 57 21 31 979.5 - -
27/03:30am 3.0 -7.4 -5.1 55 - ENE 41 57 22 31 979.6 - -
27/03:05am 3.3 -8.5 -5.6 52 - ENE 48 67 26 36 979.1 - -
27/03:00am 3.3 -8.9 -5.6 52 - ENE 50 67 27 36 979.1 - -
27/02:30am 3.5 -8.3 -5.7 51 - ENE 48 67 26 36 979.2 - -
27/02:03am 3.5 -7.9 -5.7 51 - NE 46 65 25 35 979.3 - -
27/02:00am 3.5 -8.3 -5.7 51 - ENE 48 65 26 35 979.2 979.3 -
27/01:30am 3.7 -7.3 -5.7 50 - ENE 44 69 24 37 979.0 - -
27/01:01am 3.9 -7.1 -5.3 51 - ENE 44 63 24 34 979.1 - -
27/01:00am 4.0 -7.4 -5.2 51 - ENE 46 63 25 34 979.1 - -
27/12:42am 4.0 -6.1 -5.5 50 - ENE 39 57 21 31 979.1 - -
27/12:30am 4.0 -6.4 -5.5 50 - ENE 41 52 22 28 979.2 - -
27/12:00am 4.2 -6.2 -5.0 51 - NE 41 59 22 32 979.5 - -
 
Date/Time
EDT
Temp
°C
App
Temp
°C
Dew
Point
Rel
Hum
%
Delta-T
°C
Wind Press
QNH
hPa
Press
MSL
hPa
Rain
since 9 am
mm
Dir
 
Spd
km/h
Gust
km/h
Spd
kts
Gust
kts
26/11:45pm 4.3 -5.4 -5.2 50 - NE 37 57 20 31 979.5 - -
26/11:30pm 4.2 -5.1 -5.0 51 - NE 35 46 19 25 979.6 - -
26/11:00pm 4.3 -4.4 -4.7 52 - ENE 32 48 17 26 979.7 979.8 -
26/10:30pm 4.3 -5.7 -4.9 51 - ENE 39 52 21 28 979.6 - -
26/10:00pm 4.9 -5.1 -4.9 49 - ENE 39 57 21 31 979.2 - -
26/09:51pm 5.2 -4.4 -4.6 49 - NE 37 56 20 30 979.4 - -
26/09:30pm 4.4 -3.8 -4.1 54 - NE 30 39 16 21 979.9 - -
26/09:00pm 3.0 -4.0 -3.3 63 - NE 24 35 13 19 980.4 - -
26/08:30pm 2.3 -5.8 -3.2 67 - NNE 30 35 16 19 980.4 - -
26/08:00pm 2.8 -6.7 -3.7 62 - NE 37 48 20 26 979.9 980.0 -
26/07:30pm 2.2 -7.3 -3.9 64 - NE 37 48 20 26 979.6 - -
26/07:00pm 2.1 -8.2 -3.8 65 - NE 41 56 22 30 979.6 - -
26/06:33pm 2.2 -9.1 -4.5 61 - NE 46 69 25 37 979.2 - -
26/06:30pm 2.6 -9.0 -4.1 61 - NE 48 63 26 34 979.2 - -
26/06:00pm 2.3 -10.9 -4.9 59 - NE 56 74 30 40 979.2 - -
26/05:36pm 1.6 -9.7 -4.3 65 - NE 46 65 25 35 979.6 - -
26/05:30pm 1.6 -11.2 -4.7 63 - NE 54 69 29 37 979.4 - -
26/05:00pm 1.7 -9.6 -4.6 63 - ENE 46 65 25 35 979.2 979.3 -
26/04:32pm 1.6 -10.1 -4.5 64 - NE 48 67 26 36 979.3 - -
26/04:30pm 1.6 -10.5 -4.5 64 - NE 50 67 27 36 979.3 - -
26/04:01pm 1.8 -10.7 -5.6 58 - NE 52 74 28 40 978.7 - -
26/04:00pm 1.8 -11.1 -5.3 59 - NE 54 70 29 38 978.7 - -
26/03:30pm 1.8 -10.8 -5.8 57 - ENE 52 70 28 38 978.6 - -
26/03:00pm 1.8 -12.5 -6.5 54 - ENE 61 82 33 44 978.1 - -
26/02:38pm 1.8 -11.6 -7.0 52 - ENE 56 78 30 42 978.1 - -
26/02:30pm 1.9 -11.7 -6.9 52 - ENE 57 76 31 41 978.3 - -
26/02:00pm 2.1 -12.3 -7.5 49 - ENE 61 80 33 43 978.3 978.4 -
26/01:30pm 2.0 -11.1 -7.8 48 - ENE 54 72 29 39 978.7 - -
26/01:00pm 2.3 -9.7 -7.6 48 - ENE 48 67 26 36 979.0 - -
26/12:36pm 2.1 -10.3 -8.0 47 - ENE 50 69 27 37 979.0 - -
26/12:30pm 2.0 -10.8 -8.7 45 - ENE 52 65 28 35 978.9 - -
26/12:00pm 2.0 -10.0 -8.1 47 - ENE 48 69 26 37 979.3 - -
26/11:31am 1.8 -11.0 -8.0 48 - ENE 52 70 28 38 979.4 - -
26/11:30am 1.8 -11.4 -8.0 48 - ENE 54 70 29 38 979.2 - -
26/11:16am 1.8 -10.6 -8.0 48 - ENE 50 70 27 38 979.4 - -
26/11:00am 1.7 -10.0 -8.4 47 - ENE 46 59 25 32 979.5 979.6 -
26/10:44am 1.7 -9.4 -8.4 47 - ENE 43 61 23 33 979.6 - -
26/10:30am 1.7 -9.4 -8.4 47 - ENE 43 56 23 30 979.7 - -
26/10:00am 1.6 -9.5 -7.9 49 - ENE 43 57 23 31 979.6 - -
26/09:50am 1.7 -8.6 -8.1 48 - ENE 39 61 21 33 979.8 - -
26/09:30am 1.7 -7.4 -7.8 49 - ENE 33 48 18 26 980.0 - -
26/09:00am 1.7 -8.6 -7.8 49 - ENE 39 50 21 27 980.1 - -
26/08:43am 1.8 -7.4 -8.0 48 - ENE 33 52 18 28 980.0 - -
26/08:30am 1.7 -8.2 -7.8 49 - ENE 37 50 20 27 980.2 - -
26/08:09am 1.7 -8.6 -7.8 49 - ENE 39 57 21 31 980.1 - -
26/08:00am 1.7 -9.4 -8.1 48 - ENE 43 59 23 32 980.1 980.2 -
26/07:30am 1.7 -9.9 -7.8 49 - ENE 46 61 25 33 979.3 - -
26/07:08am 1.7 -9.3 -7.3 51 - ENE 43 61 23 33 979.5 - -
26/07:00am 1.6 -9.6 -7.7 50 - ENE 44 56 24 30 979.9 - -
26/06:30am 1.6 -9.0 -7.2 52 - ENE 41 54 22 29 979.9 - -
26/06:00am 1.6 -8.6 -6.9 53 - ENE 39 56 21 30 979.8 - -
26/05:30am 1.8 -9.7 -6.7 53 - ENE 46 56 25 30 979.5 - -
26/05:00am 1.9 -9.2 -6.6 53 - ENE 44 59 24 32 979.3 979.4 -
26/04:30am 1.9 -9.0 -6.2 55 - NE 43 54 23 29 979.4 - -
26/04:00am 1.9 -7.4 -5.7 57 - ENE 35 46 19 25 979.4 - -
26/03:30am 1.8 -6.5 -4.9 61 - NE 30 39 16 21 979.5 - -
26/03:19am 1.8 -6.9 -4.9 61 - NE 32 48 17 26 979.4 - -
26/03:00am 1.5 -5.5 -3.9 67 - NE 24 30 13 16 979.6 - -
26/02:30am 1.5 -5.9 -3.6 69 - NE 26 33 14 18 979.4 - -
26/02:00am 1.4 -5.9 -3.1 72 - NE 26 37 14 20 979.2 979.3 -
26/01:30am 0.8 -5.2 -1.9 82 - NNE 20 26 11 14 979.1 - -
26/01:00am 1.5 -5.3 -1.9 78 - NE 24 32 13 17 979.0 - -
26/12:30am 1.2 -6.4 -2.2 78 - NE 28 35 15 19 978.8 - -
26/12:00am 1.5 -6.5 -2.1 77 - NE 30 37 16 20 978.6 - -
 
Date/Time
EDT
Temp
°C
App
Temp
°C
Dew
Point
Rel
Hum
%
Delta-T
°C
Wind Press
QNH
hPa
Press
MSL
hPa
Rain
since 9 am
mm
Dir
 
Spd
km/h
Gust
km/h
Spd
kts
Gust
kts
25/11:30pm 1.7 -6.7 -2.1 76 - NE 32 41 17 22 978.4 - -
25/11:00pm 1.5 -6.1 -2.1 77 - NE 28 35 15 19 978.3 978.4 -
25/10:30pm 1.9 -5.3 -2.2 74 - NE 26 33 14 18 978.2 - -
25/10:00pm 1.7 -6.3 -2.6 73 - NE 30 39 16 21 977.9 - -
25/09:30pm 1.9 -6.8 -3.0 70 - NE 33 43 18 23 977.7 - -
25/09:00pm 1.8 -7.2 -3.1 70 - NE 35 44 19 24 977.4 - -
25/08:34pm 2.0 -8.2 -3.1 69 - NE 41 59 22 32 977.2 - -
25/08:30pm 2.2 -8.3 -2.9 69 - NE 43 59 23 32 977.2 - -
25/08:00pm 2.0 -8.2 -2.9 70 - NE 41 52 22 28 977.0 977.1 -
25/07:30pm 2.5 -8.1 -3.6 64 - NE 43 56 23 30 976.6 - -
25/07:00pm 2.6 -9.5 -4.6 59 - NE 50 69 27 37 976.1 - -
25/06:35pm 2.5 -9.6 -4.9 58 - NE 50 69 27 37 976.0 - -
25/06:30pm 2.4 -9.7 -4.8 59 - NE 50 63 27 34 976.2 - -
25/06:03pm 2.5 -8.5 -5.1 57 - NE 44 63 24 34 976.1 - -
25/06:00pm 2.4 -8.6 -5.0 58 - NE 44 57 24 31 976.3 - -
25/05:37pm 2.1 -8.7 -5.1 59 - NE 43 63 23 34 975.9 - -
25/05:30pm 2.1 -8.9 -5.1 59 - NE 44 59 24 32 975.9 - -
25/05:09pm 1.8 -9.5 -4.9 61 - NE 46 65 25 35 975.9 - -
25/05:00pm 1.9 -10.2 -4.6 62 - NE 50 67 27 36 975.9 976.0 -
25/04:30pm 2.0 -9.4 -5.2 59 - NE 46 69 25 37 975.7 - -
25/04:10pm 2.0 -9.0 -4.9 60 - NE 44 63 24 34 975.7 - -
25/04:00pm 2.0 -10.1 -5.2 59 - NE 50 65 27 35 975.3 - -
25/03:43pm 2.0 -9.0 -5.4 58 - ENE 44 65 24 35 975.2 - -
25/03:30pm 1.9 -9.1 -5.2 59 - NE 44 61 24 33 975.4 - -
25/03:00pm 2.1 -8.7 -5.1 59 - NE 43 61 23 33 975.2 - -
25/02:30pm 1.8 -10.0 -5.3 59 - ENE 48 67 26 36 975.0 - -
25/02:00pm 2.1 -8.9 -5.1 59 - ENE 44 56 24 30 974.9 975.0 -
25/01:33pm 1.9 -9.1 -5.2 59 - ENE 44 63 24 34 974.9 - -
25/01:30pm 1.9 -9.5 -5.2 59 - ENE 46 63 25 34 975.0 - -
25/01:02pm 1.9 -10.3 -5.7 57 - ENE 50 69 27 37 974.7 - -
25/01:00pm 1.8 -10.4 -5.8 57 - ENE 50 67 27 36 974.8 - -
25/12:36pm 1.8 -9.2 -5.6 58 - ENE 44 63 24 34 975.0 - -
25/12:30pm 1.8 -9.6 -5.6 58 - ENE 46 63 25 34 974.9 - -
25/12:02pm 1.8 -9.0 -5.3 59 - ENE 43 61 23 33 975.1 - -
25/12:00pm 1.8 -9.2 -5.6 58 - ENE 44 61 24 33 975.1 - -
25/11:30am 1.5 -8.5 -5.2 61 - ENE 39 54 21 29 975.1 - -
25/11:00am 1.4 -7.3 -5.3 61 - NE 32 46 17 25 975.2 975.3 -
25/10:30am 1.2 -7.5 -5.0 63 - NE 32 43 17 23 975.3 - -
25/10:00am 1.1 -7.5 -4.5 66 - NE 32 46 17 25 975.4 - -
25/09:51am 1.1 -6.7 -4.1 68 - NE 28 37 15 20 975.4 - -
25/09:30am 0.0 -4.0 -1.9 87 - WSW 9 13 5 7 975.7 - -
25/09:00am -0.4 -4.6 -1.2 94 - SW 11 15 6 8 975.6 - -
25/08:30am -0.5 -4.0 -1.3 94 - SSW 7 11 4 6 975.8 - -
25/08:00am -0.6 -4.8 -1.2 96 - SSW 11 15 6 8 976.0 976.1 -
25/07:30am -0.7 -4.9 -1.1 97 - S 11 15 6 8 976.1 - -
25/07:00am -0.8 -5.1 -1.4 96 - SSW 11 15 6 8 976.3 - -
25/06:30am -0.8 -5.1 -1.5 95 - SSW 11 13 6 7 976.4 - -
25/06:00am -0.4 -4.3 -1.5 92 - S 9 13 5 7 976.5 - -
25/05:30am -0.2 -4.1 -1.8 89 - S 9 15 5 8 976.5 - -
25/05:00am -0.1 -4.0 -1.8 88 - S 9 13 5 7 976.5 976.6 -
25/04:30am 0.3 -3.7 -2.6 81 - S 9 13 5 7 976.5 - -
25/04:00am 0.5 -3.9 -2.7 79 - S 11 15 6 8 976.5 - -
25/03:30am 0.5 -3.0 -2.5 80 - S 6 7 3 4 976.7 - -
25/03:00am 0.6 -3.2 -3.5 74 - ESE 7 11 4 6 976.8 - -
25/02:30am 1.2 -4.5 -4.0 68 - E 17 22 9 12 976.8 - -
25/02:00am 1.1 -1.9 -5.6 61 - WSW 2 6 1 3 976.9 977.0 -
25/01:30am 1.0 -2.9 -6.5 57 - WNW 6 7 3 4 977.1 - -
25/01:00am 1.3 -3.5 -5.6 60 - N 11 13 6 7 977.1 - -
25/12:30am 1.5 -3.3 -5.6 59 - N 11 13 6 7 977.2 - -
25/12:00am 1.7 -3.1 -6.1 56 - N 11 13 6 7 977.3 - -
 
Date/Time
EDT
Temp
°C
App
Temp
°C
Dew
Point
Rel
Hum
%
Delta-T
°C
Wind Press
QNH
hPa
Press
MSL
hPa
Rain
since 9 am
mm
Dir
 
Spd
km/h
Gust
km/h
Spd
kts
Gust
kts
24/11:30pm 1.4 -3.0 -6.2 57 - N 9 13 5 7 977.4 - -
24/11:00pm 1.3 -3.1 -6.3 57 - N 9 11 5 6 977.4 977.5 -
24/10:30pm 1.4 -3.0 -6.2 57 - NNW 9 11 5 6 977.6 - -
24/10:00pm 1.7 -4.2 -5.4 59 - N 17 20 9 11 977.7 - -
24/09:30pm 1.5 -4.0 -5.6 59 - N 15 20 8 11 977.8 - -
24/09:00pm 2.3 -4.0 -5.8 55 - N 19 28 10 15 977.8 - -
24/08:30pm 3.0 -5.6 -8.6 42 - NE 30 39 16 21 977.8 - -
24/08:00pm 3.0 -6.2 -8.9 41 - NE 33 50 18 27 977.9 978.0 -
24/07:30pm 2.9 -6.3 -8.1 44 - NE 33 46 18 25 978.1 - -
24/07:00pm 2.8 -6.4 -8.2 44 - NE 33 46 18 25 978.1 - -
24/06:30pm 2.6 -7.8 -8.7 43 - NE 39 54 21 29 978.3 - -
24/06:00pm 2.5 -8.6 -8.8 43 - NE 43 54 23 29 978.6 - -
24/05:30pm 2.7 -9.0 -8.3 44 - NE 46 61 25 33 978.7 - -
24/05:00pm 2.6 -9.8 -8.1 45 - NE 50 61 27 33 978.7 978.8 -
24/04:30pm 2.4 -8.8 -7.7 47 - NE 44 56 24 30 978.9 - -
24/04:00pm 1.6 -10.0 -7.9 49 - NE 46 56 25 30 978.9 - -
24/03:30pm 1.3 -10.3 -7.5 52 - NE 46 59 25 32 979.0 - -
24/03:00pm 1.0 -10.2 -7.2 54 - NE 44 57 24 31 978.9 - -
24/02:30pm 0.7 -10.8 -6.8 57 - ENE 46 59 25 32 979.0 - -
24/02:15pm 0.7 -10.3 -6.8 57 - NE 43 61 23 33 979.1 - -
24/02:00pm 0.6 -10.9 -6.5 59 - NE 46 59 25 32 979.0 979.1 -

Other Formats:

Comma delimited format used in spreadsheet applications
http://www.bom.gov.au/fwo/IDT60803/IDT60803.89571.axf

JavaScript Object Notation format (JSON) in row-major order
http://www.bom.gov.au/fwo/IDT60803/IDT60803.89571.json